sensor_id;sensor_type;location;lat;lon;timestamp;pressure;altitude;pressure_sealevel;temperature;humidity
34241;BME280;20503;50.200;19.508;2023-04-26T00:01:35;100928.20;;;7.03;89.71
34241;BME280;20503;50.200;19.508;2023-04-26T00:06:43;100923.79;;;7.02;89.50
34241;BME280;20503;50.200;19.508;2023-04-26T00:11:51;100935.87;;;7.00;89.12
34241;BME280;20503;50.200;19.508;2023-04-26T00:16:59;100932.80;;;6.80;86.57
34241;BME280;20503;50.200;19.508;2023-04-26T00:22:07;100925.55;;;6.73;86.49
34241;BME280;20503;50.200;19.508;2023-04-26T00:27:17;100929.40;;;6.56;86.18
34241;BME280;20503;50.200;19.508;2023-04-26T00:32:22;100933.02;;;6.48;85.57
34241;BME280;20503;50.200;19.508;2023-04-26T00:37:30;100934.28;;;6.30;85.43
34241;BME280;20503;50.200;19.508;2023-04-26T00:42:39;100938.45;;;6.18;84.72
34241;BME280;20503;50.200;19.508;2023-04-26T00:47:46;100943.03;;;6.09;85.77
34241;BME280;20503;50.200;19.508;2023-04-26T00:52:54;100940.88;;;5.97;87.38
34241;BME280;20503;50.200;19.508;2023-04-26T00:58:02;100943.48;;;5.82;89.59
34241;BME280;20503;50.200;19.508;2023-04-26T01:03:10;100943.84;;;5.79;90.89
34241;BME280;20503;50.200;19.508;2023-04-26T01:08:17;100932.95;;;5.71;93.33
34241;BME280;20503;50.200;19.508;2023-04-26T01:13:25;100939.59;;;5.61;96.93
34241;BME280;20503;50.200;19.508;2023-04-26T01:18:33;100955.20;;;5.51;99.25
34241;BME280;20503;50.200;19.508;2023-04-26T01:23:41;100953.20;;;5.45;100.00
34241;BME280;20503;50.200;19.508;2023-04-26T01:28:49;100946.93;;;5.37;100.00
34241;BME280;20503;50.200;19.508;2023-04-26T01:33:56;100972.38;;;5.36;99.95
34241;BME280;20503;50.200;19.508;2023-04-26T01:39:04;100964.91;;;5.22;100.00
34241;BME280;20503;50.200;19.508;2023-04-26T01:44:12;100970.01;;;5.17;100.00
34241;BME280;20503;50.200;19.508;2023-04-26T01:49:20;100974.77;;;5.15;100.00
34241;BME280;20503;50.200;19.508;2023-04-26T01:54:28;100977.45;;;5.07;100.00
34241;BME280;20503;50.200;19.508;2023-04-26T01:59:36;100987.29;;;5.08;100.00
34241;BME280;20503;50.200;19.508;2023-04-26T02:04:43;100983.90;;;4.98;100.00
34241;BME280;20503;50.200;19.508;2023-04-26T02:09:51;100994.05;;;4.80;100.00
34241;BME280;20503;50.200;19.508;2023-04-26T02:14:59;100989.27;;;4.66;100.00
34241;BME280;20503;50.200;19.508;2023-04-26T02:20:08;100985.98;;;4.46;100.00
34241;BME280;20503;50.200;19.508;2023-04-26T02:25:16;100993.23;;;4.30;100.00
34241;BME280;20503;50.200;19.508;2023-04-26T02:30:24;100998.79;;;4.28;100.00
34241;BME280;20503;50.200;19.508;2023-04-26T02:35:31;100997.90;;;4.20;100.00
34241;BME280;20503;50.200;19.508;2023-04-26T02:40:39;100995.86;;;4.14;100.00
34241;BME280;20503;50.200;19.508;2023-04-26T02:45:47;100993.96;;;4.06;100.00
34241;BME280;20503;50.200;19.508;2023-04-26T02:50:55;100994.26;;;4.03;100.00
34241;BME280;20503;50.200;19.508;2023-04-26T02:56:03;100993.19;;;3.88;100.00
34241;BME280;20503;50.200;19.508;2023-04-26T03:01:11;101001.24;;;3.80;100.00
34241;BME280;20503;50.200;19.508;2023-04-26T03:06:19;100990.31;;;3.64;100.00
34241;BME280;20503;50.200;19.508;2023-04-26T03:11:27;100996.30;;;3.51;100.00
34241;BME280;20503;50.200;19.508;2023-04-26T03:16:41;101005.53;;;3.40;100.00
34241;BME280;20503;50.200;19.508;2023-04-26T03:21:43;101009.48;;;3.28;100.00
34241;BME280;20503;50.200;19.508;2023-04-26T03:26:52;101011.81;;;3.23;100.00
34241;BME280;20503;50.200;19.508;2023-04-26T03:32:01;101018.55;;;3.19;100.00
34241;BME280;20503;50.200;19.508;2023-04-26T03:37:08;101020.80;;;3.24;100.00
34241;BME280;20503;50.200;19.508;2023-04-26T03:42:15;101030.43;;;3.26;100.00
34241;BME280;20503;50.200;19.508;2023-04-26T03:47:24;101036.84;;;3.25;100.00
34241;BME280;20503;50.200;19.508;2023-04-26T03:52:32;101037.94;;;3.32;100.00
34241;BME280;20503;50.200;19.508;2023-04-26T03:57:40;101045.59;;;3.19;100.00
34241;BME280;20503;50.200;19.508;2023-04-26T04:02:48;101060.09;;;3.36;100.00
34241;BME280;20503;50.200;19.508;2023-04-26T04:07:56;101072.23;;;3.32;100.00
34241;BME280;20503;50.200;19.508;2023-04-26T04:13:04;101077.73;;;3.40;100.00
34241;BME280;20503;50.200;19.508;2023-04-26T04:18:12;101080.45;;;3.40;100.00
34241;BME280;20503;50.200;19.508;2023-04-26T04:23:20;101083.11;;;3.57;100.00
34241;BME280;20503;50.200;19.508;2023-04-26T04:28:28;101084.73;;;4.18;100.00
34241;BME280;20503;50.200;19.508;2023-04-26T04:33:36;101092.54;;;4.47;100.00
34241;BME280;20503;50.200;19.508;2023-04-26T04:38:43;101095.86;;;4.74;100.00
34241;BME280;20503;50.200;19.508;2023-04-26T04:43:51;101102.24;;;5.07;96.82
34241;BME280;20503;50.200;19.508;2023-04-26T04:48:59;101104.60;;;5.02;96.36
34241;BME280;20503;50.200;19.508;2023-04-26T04:54:11;101113.66;;;5.26;95.32
34241;BME280;20503;50.200;19.508;2023-04-26T04:59:15;101115.01;;;5.22;94.43
34241;BME280;20503;50.200;19.508;2023-04-26T05:04:22;101105.51;;;5.34;94.32
34241;BME280;20503;50.200;19.508;2023-04-26T05:09:30;101119.57;;;5.22;94.60
34241;BME280;20503;50.200;19.508;2023-04-26T05:14:38;101124.36;;;6.39;90.42
34241;BME280;20503;50.200;19.508;2023-04-26T05:19:46;101127.11;;;8.14;82.23
34241;BME280;20503;50.200;19.508;2023-04-26T05:24:53;101132.00;;;8.99;76.19
34241;BME280;20503;50.200;19.508;2023-04-26T05:30:01;101132.20;;;8.83;76.42
34241;BME280;20503;50.200;19.508;2023-04-26T05:35:08;101141.91;;;10.33;71.62
34241;BME280;20503;50.200;19.508;2023-04-26T05:40:17;101144.65;;;11.35;67.09
34241;BME280;20503;50.200;19.508;2023-04-26T05:45:25;101147.33;;;11.69;64.52
34241;BME280;20503;50.200;19.508;2023-04-26T05:50:33;101149.23;;;11.62;63.10
34241;BME280;20503;50.200;19.508;2023-04-26T05:55:41;101152.58;;;11.57;64.42
34241;BME280;20503;50.200;19.508;2023-04-26T06:00:48;101152.08;;;12.14;61.19
34241;BME280;20503;50.200;19.508;2023-04-26T06:05:57;101160.28;;;11.88;61.26
34241;BME280;20503;50.200;19.508;2023-04-26T06:11:04;101158.36;;;11.88;60.59
34241;BME280;20503;50.200;19.508;2023-04-26T06:16:11;101162.76;;;11.76;60.17
34241;BME280;20503;50.200;19.508;2023-04-26T06:21:19;101160.01;;;11.23;60.83
34241;BME280;20503;50.200;19.508;2023-04-26T06:26:27;101158.63;;;12.26;58.64
34241;BME280;20503;50.200;19.508;2023-04-26T06:31:34;101163.05;;;13.05;56.12
34241;BME280;20503;50.200;19.508;2023-04-26T06:36:42;101164.05;;;13.73;53.50
34241;BME280;20503;50.200;19.508;2023-04-26T06:41:50;101167.35;;;13.44;51.74
34241;BME280;20503;50.200;19.508;2023-04-26T06:46:57;101155.88;;;12.52;52.44
34241;BME280;20503;50.200;19.508;2023-04-26T06:52:05;101166.42;;;11.43;54.44
34241;BME280;20503;50.200;19.508;2023-04-26T06:57:13;101172.69;;;11.84;55.74
34241;BME280;20503;50.200;19.508;2023-04-26T07:02:21;101178.34;;;11.63;52.48
34241;BME280;20503;50.200;19.508;2023-04-26T07:07:28;101173.41;;;12.18;51.32
34241;BME280;20503;50.200;19.508;2023-04-26T07:12:36;101166.44;;;12.74;51.53
34241;BME280;20503;50.200;19.508;2023-04-26T07:17:44;101176.56;;;13.00;51.23
34241;BME280;20503;50.200;19.508;2023-04-26T07:22:51;101179.12;;;12.95;50.09
34241;BME280;20503;50.200;19.508;2023-04-26T07:27:59;101192.91;;;11.63;52.07
34241;BME280;20503;50.200;19.508;2023-04-26T07:33:07;101194.73;;;10.55;56.00
34241;BME280;20503;50.200;19.508;2023-04-26T07:38:15;101192.38;;;9.89;58.81
34241;BME280;20503;50.200;19.508;2023-04-26T07:43:23;101194.99;;;9.12;61.25
34241;BME280;20503;50.200;19.508;2023-04-26T07:48:31;101200.38;;;10.53;55.82
34241;BME280;20503;50.200;19.508;2023-04-26T07:53:39;101193.22;;;10.52;54.70
34241;BME280;20503;50.200;19.508;2023-04-26T07:58:47;101210.30;;;11.09;55.47
34241;BME280;20503;50.200;19.508;2023-04-26T08:03:55;101197.70;;;14.19;48.08
34241;BME280;20503;50.200;19.508;2023-04-26T08:09:04;101203.43;;;11.60;53.79
34241;BME280;20503;50.200;19.508;2023-04-26T08:14:11;101199.53;;;9.54;57.66
34241;BME280;20503;50.200;19.508;2023-04-26T08:19:19;101206.78;;;12.41;50.58
34241;BME280;20503;50.200;19.508;2023-04-26T08:24:27;101184.52;;;13.84;48.11
34241;BME280;20503;50.200;19.508;2023-04-26T08:29:35;101199.25;;;10.96;53.01
34241;BME280;20503;50.200;19.508;2023-04-26T08:34:44;101195.64;;;9.14;57.35
34241;BME280;20503;50.200;19.508;2023-04-26T08:39:51;101225.30;;;10.16;58.98
34241;BME280;20503;50.200;19.508;2023-04-26T08:45:00;101212.92;;;14.15;49.84
34241;BME280;20503;50.200;19.508;2023-04-26T08:50:11;101209.95;;;15.03;46.75
34241;BME280;20503;50.200;19.508;2023-04-26T08:55:17;101223.93;;;11.70;52.71
34241;BME280;20503;50.200;19.508;2023-04-26T09:00:23;101225.98;;;9.83;57.69
34241;BME280;20503;50.200;19.508;2023-04-26T09:05:33;101220.98;;;11.31;57.47
34241;BME280;20503;50.200;19.508;2023-04-26T09:10:40;101222.85;;;9.36;59.29
34241;BME280;20503;50.200;19.508;2023-04-26T09:15:48;101227.35;;;10.77;58.19
34241;BME280;20503;50.200;19.508;2023-04-26T09:21:03;101214.62;;;12.77;50.44
34241;BME280;20503;50.200;19.508;2023-04-26T09:26:14;101218.92;;;11.06;53.15
34241;BME280;20503;50.200;19.508;2023-04-26T09:36:30;101226.48;;;11.72;51.06
34241;BME280;20503;50.200;19.508;2023-04-26T09:41:42;101216.32;;;13.10;47.30
34241;BME280;20503;50.200;19.508;2023-04-26T09:52:01;101222.54;;;11.94;46.43
34241;BME280;20503;50.200;19.508;2023-04-26T09:57:02;101241.42;;;9.90;54.67
34241;BME280;20503;50.200;19.508;2023-04-26T10:02:05;101242.49;;;10.52;54.84
34241;BME280;20503;50.200;19.508;2023-04-26T10:07:13;101227.80;;;10.81;51.12
34241;BME280;20503;50.200;19.508;2023-04-26T10:12:18;101237.04;;;9.60;54.52
34241;BME280;20503;50.200;19.508;2023-04-26T10:17:24;101240.16;;;10.28;52.91
34241;BME280;20503;50.200;19.508;2023-04-26T10:22:36;101227.92;;;11.34;51.27
34241;BME280;20503;50.200;19.508;2023-04-26T10:27:46;101232.54;;;10.03;50.94
34241;BME280;20503;50.200;19.508;2023-04-26T10:38:08;101245.84;;;9.13;53.52
34241;BME280;20503;50.200;19.508;2023-04-26T10:48:30;101228.44;;;10.55;51.28
34241;BME280;20503;50.200;19.508;2023-04-26T10:58:45;101258.24;;;9.01;58.43
34241;BME280;20503;50.200;19.508;2023-04-26T11:09:02;101248.33;;;9.72;56.76
34241;BME280;20503;50.200;19.508;2023-04-26T11:14:06;101245.06;;;10.33;53.87
34241;BME280;20503;50.200;19.508;2023-04-26T11:19:08;101244.41;;;9.95;55.76
34241;BME280;20503;50.200;19.508;2023-04-26T11:24:14;101239.59;;;11.83;49.60
34241;BME280;20503;50.200;19.508;2023-04-26T11:29:18;101256.78;;;9.91;53.38
34241;BME280;20503;50.200;19.508;2023-04-26T11:34:42;101258.34;;;8.93;57.10
34241;BME280;20503;50.200;19.508;2023-04-26T11:39:30;101256.36;;;9.73;55.43
34241;BME280;20503;50.200;19.508;2023-04-26T11:44:32;101265.50;;;10.58;46.79
34241;BME280;20503;50.200;19.508;2023-04-26T11:49:39;101260.71;;;11.48;48.94
34241;BME280;20503;50.200;19.508;2023-04-26T11:54:46;101261.25;;;10.76;48.24
34241;BME280;20503;50.200;19.508;2023-04-26T11:59:53;101266.73;;;10.13;46.76
34241;BME280;20503;50.200;19.508;2023-04-26T12:05:01;101268.10;;;10.24;49.54
34241;BME280;20503;50.200;19.508;2023-04-26T12:10:15;101282.62;;;9.89;50.65
34241;BME280;20503;50.200;19.508;2023-04-26T12:15:17;101279.71;;;9.04;56.10
34241;BME280;20503;50.200;19.508;2023-04-26T12:25:36;101271.96;;;10.29;56.49
34241;BME280;20503;50.200;19.508;2023-04-26T12:30:39;101259.10;;;11.60;51.47
34241;BME280;20503;50.200;19.508;2023-04-26T12:35:46;101277.98;;;11.15;47.26
34241;BME280;20503;50.200;19.508;2023-04-26T12:40:53;101289.16;;;10.23;48.55
34241;BME280;20503;50.200;19.508;2023-04-26T12:46:00;101293.65;;;11.21;43.17
34241;BME280;20503;50.200;19.508;2023-04-26T12:51:08;101287.59;;;11.32;43.24
34241;BME280;20503;50.200;19.508;2023-04-26T12:56:15;101280.69;;;11.70;43.84
34241;BME280;20503;50.200;19.508;2023-04-26T13:01:22;101279.09;;;11.54;46.07
34241;BME280;20503;50.200;19.508;2023-04-26T13:06:29;101283.08;;;10.28;47.08
34241;BME280;20503;50.200;19.508;2023-04-26T13:11:37;101300.55;;;9.33;51.89
34241;BME280;20503;50.200;19.508;2023-04-26T13:16:44;101310.79;;;8.66;54.91
34241;BME280;20503;50.200;19.508;2023-04-26T13:21:52;101319.76;;;8.74;52.78
34241;BME280;20503;50.200;19.508;2023-04-26T13:26:59;101295.40;;;10.17;51.34
34241;BME280;20503;50.200;19.508;2023-04-26T13:32:06;101307.06;;;10.26;51.76
34241;BME280;20503;50.200;19.508;2023-04-26T13:37:14;101316.20;;;9.68;51.21
34241;BME280;20503;50.200;19.508;2023-04-26T13:42:21;101310.19;;;10.23;49.94
34241;BME280;20503;50.200;19.508;2023-04-26T13:47:29;101312.15;;;11.19;46.44
34241;BME280;20503;50.200;19.508;2023-04-26T13:52:36;101309.23;;;10.51;47.07
34241;BME280;20503;50.200;19.508;2023-04-26T13:57:47;101313.54;;;10.04;47.46
34241;BME280;20503;50.200;19.508;2023-04-26T14:02:51;101317.43;;;9.66;49.95
34241;BME280;20503;50.200;19.508;2023-04-26T14:07:58;101327.97;;;9.54;50.72
34241;BME280;20503;50.200;19.508;2023-04-26T14:13:06;101331.00;;;9.88;51.08
34241;BME280;20503;50.200;19.508;2023-04-26T14:18:13;101336.08;;;10.06;50.44
34241;BME280;20503;50.200;19.508;2023-04-26T14:23:21;101327.33;;;10.31;51.68
34241;BME280;20503;50.200;19.508;2023-04-26T14:28:28;101334.40;;;11.30;47.13
34241;BME280;20503;50.200;19.508;2023-04-26T14:33:36;101337.78;;;10.84;45.33
34241;BME280;20503;50.200;19.508;2023-04-26T14:38:44;101359.08;;;9.82;48.30
34241;BME280;20503;50.200;19.508;2023-04-26T14:43:50;101352.02;;;9.59;50.52
34241;BME280;20503;50.200;19.508;2023-04-26T14:48:58;101358.63;;;9.50;50.06
34241;BME280;20503;50.200;19.508;2023-04-26T14:54:05;101356.33;;;9.25;51.60
34241;BME280;20503;50.200;19.508;2023-04-26T14:59:13;101363.60;;;9.46;52.54
34241;BME280;20503;50.200;19.508;2023-04-26T15:04:20;101370.02;;;9.02;55.88
34241;BME280;20503;50.200;19.508;2023-04-26T15:09:28;101368.88;;;8.97;55.68
34241;BME280;20503;50.200;19.508;2023-04-26T15:14:35;101370.70;;;9.19;55.76
34241;BME280;20503;50.200;19.508;2023-04-26T15:19:43;101362.87;;;9.67;54.43
34241;BME280;20503;50.200;19.508;2023-04-26T15:24:50;101358.02;;;9.26;53.40
34241;BME280;20503;50.200;19.508;2023-04-26T15:29:58;101365.73;;;8.85;55.80
34241;BME280;20503;50.200;19.508;2023-04-26T15:35:06;101367.35;;;8.94;56.55
34241;BME280;20503;50.200;19.508;2023-04-26T15:40:13;101378.60;;;8.77;57.53
34241;BME280;20503;50.200;19.508;2023-04-26T15:45:20;101378.84;;;8.90;57.77
34241;BME280;20503;50.200;19.508;2023-04-26T15:50:28;101382.52;;;8.97;56.44
34241;BME280;20503;50.200;19.508;2023-04-26T15:55:36;101379.97;;;8.95;58.37
34241;BME280;20503;50.200;19.508;2023-04-26T16:00:43;101381.86;;;9.31;57.38
34241;BME280;20503;50.200;19.508;2023-04-26T16:05:51;101393.07;;;9.36;56.48
34241;BME280;20503;50.200;19.508;2023-04-26T16:10:59;101381.86;;;9.46;56.09
34241;BME280;20503;50.200;19.508;2023-04-26T16:16:06;101386.70;;;9.07;57.68
34241;BME280;20503;50.200;19.508;2023-04-26T16:21:14;101403.49;;;8.21;61.33
34241;BME280;20503;50.200;19.508;2023-04-26T16:26:22;101403.53;;;7.66;65.70
34241;BME280;20503;50.200;19.508;2023-04-26T16:31:29;101414.43;;;7.58;68.03
34241;BME280;20503;50.200;19.508;2023-04-26T16:36:37;101417.70;;;7.46;68.83
34241;BME280;20503;50.200;19.508;2023-04-26T16:41:44;101419.16;;;7.72;67.67
34241;BME280;20503;50.200;19.508;2023-04-26T16:46:52;101426.98;;;7.83;67.47
34241;BME280;20503;50.200;19.508;2023-04-26T16:55:51;101446.93;;;7.68;64.82
34241;BME280;20503;50.200;19.508;2023-04-26T17:00:58;101428.55;;;7.54;60.95
34241;BME280;20503;50.200;19.508;2023-04-26T17:06:08;101425.45;;;7.73;60.03
34241;BME280;20503;50.200;19.508;2023-04-26T17:11:15;101435.32;;;7.74;59.53
34241;BME280;20503;50.200;19.508;2023-04-26T17:16:21;101441.51;;;7.52;60.81
34241;BME280;20503;50.200;19.508;2023-04-26T17:21:29;101446.45;;;7.33;61.70
34241;BME280;20503;50.200;19.508;2023-04-26T17:26:37;101446.16;;;7.20;62.40
34241;BME280;20503;50.200;19.508;2023-04-26T17:31:45;101438.32;;;7.17;63.32
34241;BME280;20503;50.200;19.508;2023-04-26T17:36:52;101451.07;;;7.16;64.47
34241;BME280;20503;50.200;19.508;2023-04-26T17:42:00;101457.02;;;7.28;64.44
34241;BME280;20503;50.200;19.508;2023-04-26T17:47:07;101458.73;;;7.29;65.24
34241;BME280;20503;50.200;19.508;2023-04-26T17:52:15;101467.25;;;7.18;65.35
34241;BME280;20503;50.200;19.508;2023-04-26T17:57:23;101479.77;;;6.71;66.20
34241;BME280;20503;50.200;19.508;2023-04-26T18:02:31;101486.20;;;6.62;66.98
34241;BME280;20503;50.200;19.508;2023-04-26T18:07:39;101487.15;;;6.37;67.91
34241;BME280;20503;50.200;19.508;2023-04-26T18:12:46;101492.39;;;6.30;68.40
34241;BME280;20503;50.200;19.508;2023-04-26T18:17:54;101496.81;;;6.31;68.42
34241;BME280;20503;50.200;19.508;2023-04-26T18:23:02;101498.16;;;6.27;71.36
34241;BME280;20503;50.200;19.508;2023-04-26T18:28:10;101498.95;;;5.86;73.08
34241;BME280;20503;50.200;19.508;2023-04-26T18:33:18;101507.05;;;5.78;73.88
34241;BME280;20503;50.200;19.508;2023-04-26T18:38:25;101507.83;;;5.71;75.07
34241;BME280;20503;50.200;19.508;2023-04-26T18:43:33;101512.59;;;5.94;73.84
34241;BME280;20503;50.200;19.508;2023-04-26T18:48:41;101512.48;;;6.04;74.92
34241;BME280;20503;50.200;19.508;2023-04-26T18:53:49;101521.91;;;5.92;75.46
34241;BME280;20503;50.200;19.508;2023-04-26T18:58:57;101521.84;;;5.84;74.73
34241;BME280;20503;50.200;19.508;2023-04-26T19:04:05;101528.64;;;5.62;76.07
34241;BME280;20503;50.200;19.508;2023-04-26T19:09:12;101531.74;;;5.50;76.64
34241;BME280;20503;50.200;19.508;2023-04-26T19:14:21;101538.55;;;5.29;77.54
34241;BME280;20503;50.200;19.508;2023-04-26T19:19:29;101541.40;;;4.92;79.28
34241;BME280;20503;50.200;19.508;2023-04-26T19:24:37;101537.38;;;4.52;80.41
34241;BME280;20503;50.200;19.508;2023-04-26T19:29:45;101535.23;;;4.55;82.59
34241;BME280;20503;50.200;19.508;2023-04-26T19:34:53;101542.74;;;4.61;82.51
34241;BME280;20503;50.200;19.508;2023-04-26T19:40:01;101546.33;;;4.62;84.15
34241;BME280;20503;50.200;19.508;2023-04-26T19:45:09;101541.79;;;4.53;84.27
34241;BME280;20503;50.200;19.508;2023-04-26T19:50:16;101553.84;;;4.41;84.60
34241;BME280;20503;50.200;19.508;2023-04-26T19:55:26;101548.68;;;4.20;86.02
34241;BME280;20503;50.200;19.508;2023-04-26T20:00:33;101559.78;;;4.17;86.51
34241;BME280;20503;50.200;19.508;2023-04-26T20:05:40;101558.72;;;4.01;87.16
34241;BME280;20503;50.200;19.508;2023-04-26T20:10:48;101562.16;;;3.93;89.20
34241;BME280;20503;50.200;19.508;2023-04-26T20:15:56;101558.95;;;3.71;89.52
34241;BME280;20503;50.200;19.508;2023-04-26T20:21:04;101561.83;;;3.41;90.83
34241;BME280;20503;50.200;19.508;2023-04-26T20:26:13;101566.67;;;3.47;90.46
34241;BME280;20503;50.200;19.508;2023-04-26T20:31:21;101567.91;;;3.62;90.99
34241;BME280;20503;50.200;19.508;2023-04-26T20:36:28;101576.35;;;3.50;90.16
34241;BME280;20503;50.200;19.508;2023-04-26T20:41:36;101568.11;;;3.32;91.95
34241;BME280;20503;50.200;19.508;2023-04-26T20:46:44;101568.38;;;3.20;94.06
34241;BME280;20503;50.200;19.508;2023-04-26T20:51:52;101576.36;;;3.21;94.54
34241;BME280;20503;50.200;19.508;2023-04-26T20:57:00;101578.77;;;3.05;94.34
34241;BME280;20503;50.200;19.508;2023-04-26T21:02:08;101572.17;;;2.79;98.56
34241;BME280;20503;50.200;19.508;2023-04-26T21:07:16;101582.54;;;2.65;100.00
34241;BME280;20503;50.200;19.508;2023-04-26T21:12:24;101578.59;;;2.88;100.00
34241;BME280;20503;50.200;19.508;2023-04-26T21:17:32;101580.34;;;2.98;100.00
34241;BME280;20503;50.200;19.508;2023-04-26T21:22:40;101591.28;;;2.97;100.00
34241;BME280;20503;50.200;19.508;2023-04-26T21:27:48;101598.57;;;3.15;100.00
34241;BME280;20503;50.200;19.508;2023-04-26T21:32:56;101592.88;;;3.18;100.00
34241;BME280;20503;50.200;19.508;2023-04-26T21:38:03;101601.41;;;3.23;100.00
34241;BME280;20503;50.200;19.508;2023-04-26T21:43:11;101604.24;;;3.12;100.00
34241;BME280;20503;50.200;19.508;2023-04-26T21:48:19;101600.27;;;3.07;100.00
34241;BME280;20503;50.200;19.508;2023-04-26T21:53:27;101608.50;;;2.96;99.51
34241;BME280;20503;50.200;19.508;2023-04-26T21:58:35;101617.85;;;2.73;100.00
34241;BME280;20503;50.200;19.508;2023-04-26T22:03:45;101622.48;;;2.61;100.00
34241;BME280;20503;50.200;19.508;2023-04-26T22:08:51;101617.73;;;2.44;100.00
34241;BME280;20503;50.200;19.508;2023-04-26T22:13:59;101620.55;;;2.33;100.00
34241;BME280;20503;50.200;19.508;2023-04-26T22:19:07;101625.12;;;2.42;100.00
34241;BME280;20503;50.200;19.508;2023-04-26T22:24:16;101636.48;;;2.36;100.00
34241;BME280;20503;50.200;19.508;2023-04-26T22:29:23;101639.89;;;2.38;100.00
34241;BME280;20503;50.200;19.508;2023-04-26T22:34:32;101634.45;;;2.29;100.00
34241;BME280;20503;50.200;19.508;2023-04-26T22:39:40;101643.63;;;2.47;100.00
34241;BME280;20503;50.200;19.508;2023-04-26T22:44:47;101641.95;;;2.55;100.00
34241;BME280;20503;50.200;19.508;2023-04-26T22:49:55;101643.31;;;2.40;100.00
34241;BME280;20503;50.200;19.508;2023-04-26T22:55:04;101651.86;;;2.45;100.00
34241;BME280;20503;50.200;19.508;2023-04-26T23:00:12;101654.47;;;2.56;100.00
34241;BME280;20503;50.200;19.508;2023-04-26T23:05:19;101644.94;;;2.52;100.00
34241;BME280;20503;50.200;19.508;2023-04-26T23:10:28;101661.84;;;2.84;100.00
34241;BME280;20503;50.200;19.508;2023-04-26T23:15:35;101658.19;;;3.04;100.00
34241;BME280;20503;50.200;19.508;2023-04-26T23:20:43;101661.77;;;3.14;100.00
34241;BME280;20503;50.200;19.508;2023-04-26T23:25:51;101669.74;;;3.25;100.00
34241;BME280;20503;50.200;19.508;2023-04-26T23:30:59;101657.80;;;3.47;100.00
34241;BME280;20503;50.200;19.508;2023-04-26T23:36:08;101659.10;;;3.43;100.00
34241;BME280;20503;50.200;19.508;2023-04-26T23:41:14;101664.22;;;3.46;100.00
34241;BME280;20503;50.200;19.508;2023-04-26T23:46:22;101665.35;;;3.43;100.00
34241;BME280;20503;50.200;19.508;2023-04-26T23:51:30;101665.80;;;3.48;100.00
34241;BME280;20503;50.200;19.508;2023-04-26T23:56:38;101664.80;;;3.49;100.00
